createdAt,value
2022-10-03T00:01:42.705Z,18.45
2022-10-03T00:04:26.721Z,15.20
2022-10-03T00:07:07.411Z,16.65
2022-10-03T00:09:57.728Z,19.05
2022-10-03T00:12:48.024Z,16.20
2022-10-03T00:15:26.096Z,26.30
2022-10-03T00:18:05.122Z,16.98
2022-10-03T00:20:52.752Z,15.82
2022-10-03T00:23:34.745Z,18.02
2022-10-03T00:26:29.808Z,20.17
2022-10-03T00:29:17.696Z,20.75
2022-10-03T00:31:57.682Z,23.25
2022-10-03T00:34:38.396Z,21.55
2022-10-03T00:37:27.407Z,19.92
2022-10-03T00:40:26.782Z,16.10
2022-10-03T00:43:29.114Z,13.13
2022-10-03T00:46:40.192Z,8.77
2022-10-03T00:49:47.216Z,8.35
2022-10-03T00:52:39.718Z,8.88
2022-10-03T00:55:23.974Z,9.93
2022-10-03T00:58:22.499Z,10.50
2022-10-03T01:00:53.058Z,9.07
2022-10-03T01:03:38.332Z,11.05
2022-10-03T01:06:20.566Z,8.15
2022-10-03T01:09:04.270Z,8.38
2022-10-03T01:11:47.166Z,6.93
2022-10-03T01:14:34.244Z,6.18
2022-10-03T01:17:19.279Z,7.35
2022-10-03T01:20:14.511Z,5.47
2022-10-03T01:23:12.842Z,5.57
2022-10-03T01:25:48.962Z,4.85
2022-10-03T01:29:05.156Z,4.75
2022-10-03T01:31:44.816Z,5.72
2022-10-03T01:34:23.762Z,4.32
2022-10-03T01:37:06.475Z,4.60
2022-10-03T01:39:43.744Z,4.40
2022-10-03T01:42:20.859Z,5.95
2022-10-03T01:45:13.895Z,4.78
2022-10-03T01:47:52.960Z,5.28
2022-10-03T01:50:31.515Z,5.95
2022-10-03T01:53:08.918Z,5.73
2022-10-03T01:55:47.220Z,5.15
2022-10-03T01:58:27.233Z,5.07
2022-10-03T02:01:08.840Z,3.95
2022-10-03T02:03:47.222Z,4.18
2022-10-03T02:06:25.703Z,4.00
2022-10-03T02:09:03.742Z,3.80
2022-10-03T02:11:40.928Z,4.10
2022-10-03T02:14:27.228Z,4.20
2022-10-03T02:17:05.603Z,6.28
2022-10-03T02:19:43.666Z,4.05
2022-10-03T02:22:17.691Z,3.55
2022-10-03T02:24:58.778Z,4.72
2022-10-03T02:28:00.888Z,3.97
2022-10-03T02:30:37.772Z,4.07
2022-10-03T02:33:45.495Z,4.78
2022-10-03T02:36:34.277Z,6.22
2022-10-03T02:39:43.646Z,4.50
2022-10-03T02:42:40.366Z,5.03
2022-10-03T02:45:43.538Z,5.05
2022-10-03T02:48:44.257Z,5.25
2022-10-03T02:51:46.013Z,6.00
2022-10-03T02:55:00.432Z,7.65
2022-10-03T02:58:05.826Z,4.20
2022-10-03T03:01:15.133Z,5.82
2022-10-03T03:04:24.184Z,4.50
2022-10-03T03:07:32.343Z,5.18
2022-10-03T03:10:32.375Z,4.05
2022-10-03T03:13:32.339Z,4.75
2022-10-03T03:16:22.415Z,5.60
2022-10-03T03:19:13.756Z,6.20
2022-10-03T03:21:55.286Z,4.70
2022-10-03T03:24:47.066Z,5.72
2022-10-03T03:27:34.774Z,6.53
2022-10-03T03:30:10.228Z,5.95
2022-10-03T03:32:56.574Z,7.88
2022-10-03T03:35:39.707Z,4.70
2022-10-03T03:38:19.449Z,6.07
2022-10-03T03:41:03.068Z,6.30
2022-10-03T03:44:11.024Z,4.68
2022-10-03T03:46:52.249Z,4.80
2022-10-03T03:49:42.253Z,5.68
2022-10-03T03:52:27.245Z,5.20
2022-10-03T03:55:25.444Z,5.47
2022-10-03T03:58:18.305Z,4.80
2022-10-03T04:01:05.206Z,4.32
2022-10-03T04:03:47.898Z,4.30
2022-10-03T04:06:46.512Z,4.18
2022-10-03T04:09:32.619Z,6.20
2022-10-03T04:12:10.967Z,4.10
2022-10-03T04:15:02.588Z,3.95
2022-10-03T04:18:04.323Z,4.68
2022-10-03T04:20:55.211Z,5.13
2022-10-03T04:23:40.412Z,6.75
2022-10-03T04:26:26.042Z,4.13
2022-10-03T04:29:20.884Z,6.18
2022-10-03T04:32:09.462Z,7.43
2022-10-03T04:34:59.087Z,7.13
2022-10-03T04:40:33.778Z,6.38
2022-10-03T04:43:13.618Z,5.80
2022-10-03T04:45:58.998Z,6.20
2022-10-03T04:48:39.183Z,7.55
2022-10-03T04:51:18.459Z,7.45
2022-10-03T04:53:56.831Z,7.30
2022-10-03T04:56:47.943Z,5.13
2022-10-03T04:59:42.731Z,7.20
2022-10-03T05:02:23.282Z,4.38
2022-10-03T05:05:25.225Z,5.53
2022-10-03T05:08:02.061Z,5.47
2022-10-03T05:10:53.440Z,7.97
2022-10-03T05:13:39.561Z,5.10
2022-10-03T05:16:24.096Z,6.20
2022-10-03T05:18:59.007Z,7.60
2022-10-03T05:21:38.259Z,6.45
2022-10-03T05:24:20.590Z,6.53
2022-10-03T05:27:02.511Z,9.10
2022-10-03T05:29:39.761Z,6.43
2022-10-03T05:32:46.001Z,7.68
2022-10-03T05:35:29.521Z,5.65
2022-10-03T05:38:40.310Z,7.40
2022-10-03T05:41:26.292Z,8.50
2022-10-03T05:44:09.484Z,8.05
2022-10-03T05:46:58.477Z,13.25
2022-10-03T05:50:11.707Z,7.88
2022-10-03T05:53:11.483Z,6.40
2022-10-03T05:55:55.395Z,7.55
2022-10-03T05:58:55.799Z,5.15
2022-10-03T06:02:19.168Z,7.53
2022-10-03T06:05:20.003Z,8.93
2022-10-03T06:08:26.705Z,7.10
2022-10-03T06:11:09.493Z,7.78
2022-10-03T06:14:13.444Z,9.45
2022-10-03T06:16:52.272Z,5.63
2022-10-03T06:19:41.308Z,7.35
2022-10-03T06:23:05.621Z,5.30
2022-10-03T06:26:07.244Z,6.70
2022-10-03T06:29:13.980Z,5.55
2022-10-03T06:32:18.256Z,6.78
2022-10-03T06:35:17.738Z,6.18
2022-10-03T06:38:27.017Z,8.50
2022-10-03T06:41:36.032Z,6.45
2022-10-03T06:44:35.585Z,7.47
2022-10-03T06:50:23.438Z,6.85
2022-10-03T06:53:28.018Z,9.07
2022-10-03T06:56:20.544Z,6.80
2022-10-03T06:59:28.550Z,5.82
2022-10-03T07:02:33.847Z,6.22
2022-10-03T07:05:50.127Z,6.57
2022-10-03T07:09:02.536Z,13.63
2022-10-03T07:12:04.738Z,6.95
2022-10-03T07:16:04.751Z,8.48
2022-10-03T07:18:58.834Z,18.13
2022-10-03T07:22:10.924Z,8.13
2022-10-03T07:25:25.870Z,5.97
2022-10-03T07:28:17.130Z,8.13
2022-10-03T07:31:02.827Z,6.35
2022-10-03T07:34:21.536Z,7.95
2022-10-03T07:37:28.338Z,8.90
2022-10-03T07:40:18.293Z,6.15
2022-10-03T07:43:31.273Z,7.32
2022-10-03T07:46:35.537Z,6.63
2022-10-03T07:49:24.127Z,6.40
2022-10-03T07:52:16.137Z,7.88
2022-10-03T07:55:16.701Z,10.32
2022-10-03T07:58:14.569Z,6.45
2022-10-03T08:01:07.600Z,5.95
2022-10-03T08:04:21.484Z,9.07
2022-10-03T08:07:09.585Z,6.32
2022-10-03T08:10:16.256Z,4.82
2022-10-03T08:13:16.191Z,6.85
2022-10-03T08:16:07.593Z,5.18
2022-10-03T08:19:10.545Z,8.48
2022-10-03T08:22:07.570Z,8.57
2022-10-03T08:25:27.298Z,5.15
2022-10-03T08:28:22.471Z,4.15
2022-10-03T08:31:19.480Z,6.72
2022-10-03T08:34:10.391Z,7.63
2022-10-03T08:37:08.061Z,7.43
2022-10-03T08:40:15.233Z,7.30
2022-10-03T08:43:10.161Z,18.02
2022-10-03T08:46:09.919Z,5.88
2022-10-03T08:49:17.500Z,5.57
2022-10-03T08:52:08.319Z,7.05
2022-10-03T08:55:02.688Z,7.32
2022-10-03T08:58:14.742Z,4.55
2022-10-03T09:01:02.243Z,9.73
2022-10-03T09:04:15.823Z,9.13
2022-10-03T09:07:17.151Z,7.38
2022-10-03T09:10:22.270Z,7.78
2022-10-03T09:13:28.753Z,5.63
2022-10-03T09:16:42.555Z,7.82
2022-10-03T09:19:55.538Z,8.52
2022-10-03T09:23:06.440Z,9.32
2022-10-03T09:26:16.334Z,9.55
2022-10-03T09:29:26.061Z,4.63
2022-10-03T09:32:36.137Z,5.57
2022-10-03T09:35:30.032Z,7.93
2022-10-03T09:38:39.543Z,7.93
2022-10-03T09:44:29.586Z,6.70
2022-10-03T09:47:34.093Z,7.40
2022-10-03T09:50:59.814Z,5.28
2022-10-03T09:54:18.035Z,10.48
2022-10-03T09:57:07.169Z,5.20
2022-10-03T10:00:01.743Z,13.32
2022-10-03T10:03:22.074Z,7.00
2022-10-03T10:06:25.219Z,7.25
2022-10-03T10:09:29.039Z,7.45
2022-10-03T10:12:28.129Z,3.58
2022-10-03T10:15:19.914Z,4.22
2022-10-03T10:18:39.363Z,5.72
2022-10-03T10:21:45.281Z,6.10
2022-10-03T10:24:56.218Z,7.80
2022-10-03T10:27:59.142Z,6.13
2022-10-03T10:31:01.867Z,5.70
2022-10-03T10:34:18.526Z,8.05
2022-10-03T10:37:44.007Z,6.68
2022-10-03T10:41:03.801Z,8.55
2022-10-03T10:44:18.937Z,6.22
2022-10-03T10:47:34.825Z,6.63
2022-10-03T10:50:39.261Z,6.63
2022-10-03T10:53:45.341Z,10.93
2022-10-03T10:56:59.433Z,7.22
2022-10-03T11:00:22.048Z,8.18
2022-10-03T11:03:28.056Z,10.15
2022-10-03T11:06:32.164Z,10.55
2022-10-03T11:09:45.373Z,6.53
2022-10-03T11:12:49.538Z,9.45
2022-10-03T11:16:07.008Z,8.35
2022-10-03T11:19:16.942Z,5.90
2022-10-03T11:22:24.955Z,6.28
2022-10-03T11:25:35.347Z,5.30
2022-10-03T11:28:40.819Z,7.25
2022-10-03T11:32:02.988Z,8.60
2022-10-03T11:35:19.251Z,5.72
2022-10-03T11:37:52.095Z,8.48
2022-10-03T11:40:31.407Z,5.80
2022-10-03T11:43:42.431Z,7.38
2022-10-03T11:46:29.007Z,10.13
2022-10-03T11:49:03.628Z,5.57
2022-10-03T11:51:45.137Z,6.53
2022-10-03T11:54:31.549Z,10.00
2022-10-03T11:57:07.371Z,5.82
2022-10-03T11:59:46.718Z,5.72
2022-10-03T12:02:22.263Z,8.30
2022-10-03T12:04:59.874Z,5.18
2022-10-03T12:08:02.699Z,4.90
2022-10-03T12:10:43.108Z,8.63
2022-10-03T12:13:17.345Z,6.28
2022-10-03T12:15:51.303Z,8.15
2022-10-03T12:18:30.101Z,9.30
2022-10-03T12:21:07.703Z,8.75
2022-10-03T12:24:08.295Z,6.40
2022-10-03T12:26:49.646Z,7.32
2022-10-03T12:29:21.972Z,5.70
2022-10-03T12:32:14.835Z,8.45
2022-10-03T12:34:50.783Z,8.45
2022-10-03T12:37:49.215Z,6.07
2022-10-03T12:40:25.183Z,7.18
2022-10-03T12:43:08.697Z,7.57
2022-10-03T12:45:43.696Z,7.43
2022-10-03T12:48:28.137Z,5.40
2022-10-03T12:51:05.104Z,5.38
2022-10-03T12:53:41.059Z,7.97
2022-10-03T12:56:19.659Z,4.90
2022-10-03T12:59:09.068Z,6.17
2022-10-03T13:01:56.603Z,5.10
2022-10-03T13:04:37.406Z,11.40
2022-10-03T13:07:30.996Z,7.00
2022-10-03T13:10:20.546Z,7.72
2022-10-03T13:15:52.807Z,6.13
2022-10-03T13:21:26.670Z,6.65
2022-10-03T13:24:01.346Z,7.40
2022-10-03T13:26:46.696Z,6.18
2022-10-03T13:29:27.234Z,9.05
2022-10-03T13:32:16.465Z,6.38
2022-10-03T13:35:44.246Z,6.72
2022-10-03T13:38:35.980Z,8.93
2022-10-03T13:41:16.101Z,6.90
2022-10-03T13:43:50.056Z,7.50
2022-10-03T13:46:27.101Z,6.95
2022-10-03T13:49:02.280Z,9.88
2022-10-03T13:51:40.994Z,11.85
2022-10-03T13:54:16.351Z,9.15
2022-10-03T13:56:59.582Z,5.20
2022-10-03T13:59:54.012Z,8.30
2022-10-03T14:03:05.053Z,7.38
2022-10-03T14:06:00.358Z,7.10
2022-10-03T14:08:53.383Z,6.28
2022-10-03T14:11:27.189Z,8.82
2022-10-03T14:14:16.298Z,8.13
2022-10-03T14:16:51.757Z,9.90
2022-10-03T14:19:31.110Z,8.32
2022-10-03T14:22:12.856Z,5.43
2022-10-03T14:24:55.880Z,7.68
2022-10-03T14:27:56.041Z,8.20
2022-10-03T14:30:26.787Z,5.75
2022-10-03T14:33:11.114Z,8.00
2022-10-03T14:35:44.327Z,9.63
2022-10-03T14:38:48.756Z,8.48
2022-10-03T14:41:23.826Z,6.80
2022-10-03T14:43:56.648Z,7.63
2022-10-03T14:46:28.965Z,6.97
2022-10-03T14:49:00.304Z,7.93
2022-10-03T14:51:34.809Z,21.42
2022-10-03T14:54:10.341Z,52.83
2022-10-03T14:56:45.385Z,28.98
2022-10-03T14:59:20.324Z,15.73
2022-10-03T15:01:51.421Z,10.85
2022-10-03T15:04:32.390Z,9.50
2022-10-03T15:07:02.999Z,10.93
2022-10-03T15:09:50.603Z,8.68
2022-10-03T15:12:24.430Z,12.55
2022-10-03T15:15:02.977Z,12.68
2022-10-03T15:17:35.823Z,7.95
2022-10-03T15:20:07.334Z,9.88
2022-10-03T15:22:39.679Z,7.38
2022-10-03T15:25:18.095Z,10.18
2022-10-03T15:27:50.990Z,10.13
2022-10-03T15:30:27.893Z,7.53
2022-10-03T15:33:09.552Z,10.77
2022-10-03T15:35:46.526Z,9.10
2022-10-03T15:38:18.209Z,7.32
2022-10-03T15:40:54.432Z,8.20
2022-10-03T15:43:34.730Z,7.55
2022-10-03T15:46:08.010Z,7.30
2022-10-03T15:48:36.931Z,13.85
2022-10-03T15:51:09.506Z,9.48
2022-10-03T15:53:39.851Z,10.63
2022-10-03T15:56:17.909Z,9.68
2022-10-03T15:58:51.074Z,9.85
2022-10-03T16:01:24.861Z,7.90
2022-10-03T16:03:56.883Z,9.13
2022-10-03T16:06:35.687Z,13.75
2022-10-03T16:09:11.527Z,7.68
2022-10-03T16:11:50.057Z,8.02
2022-10-03T16:14:23.534Z,10.02
2022-10-03T16:16:57.607Z,6.75
2022-10-03T16:19:34.562Z,5.75
2022-10-03T16:22:15.947Z,9.48
2022-10-03T16:24:51.550Z,7.78
2022-10-03T16:27:24.982Z,6.97
2022-10-03T16:30:01.391Z,10.50
2022-10-03T16:32:38.242Z,12.65
2022-10-03T16:35:40.542Z,21.83
2022-10-03T16:38:20.020Z,35.78
2022-10-03T16:43:29.233Z,10.52
2022-10-03T16:46:01.403Z,16.65
2022-10-03T16:48:50.761Z,8.40
2022-10-03T16:51:22.943Z,9.57
2022-10-03T16:53:54.709Z,13.55
2022-10-03T16:56:27.466Z,8.23
2022-10-03T16:59:12.306Z,7.88
2022-10-03T17:01:48.540Z,8.70
2022-10-03T17:04:25.794Z,5.97
2022-10-03T17:06:58.924Z,6.90
2022-10-03T17:09:36.096Z,9.45
2022-10-03T17:12:08.849Z,13.23
2022-10-03T17:14:42.685Z,9.38
2022-10-03T17:17:25.578Z,7.60
2022-10-03T17:20:01.887Z,9.05
2022-10-03T17:22:40.711Z,8.40
2022-10-03T17:25:36.406Z,11.03
2022-10-03T17:28:07.588Z,10.32
2022-10-03T17:30:46.420Z,6.93
2022-10-03T17:33:22.846Z,9.95
2022-10-03T17:36:07.865Z,6.05
2022-10-03T17:38:49.888Z,9.70
2022-10-03T17:41:23.824Z,11.30
2022-10-03T17:44:04.974Z,10.05
2022-10-03T17:46:45.826Z,13.18
2022-10-03T17:49:23.813Z,9.55
2022-10-03T17:51:54.603Z,9.43
2022-10-03T17:54:28.339Z,7.53
2022-10-03T17:57:06.253Z,7.55
2022-10-03T17:59:44.606Z,8.68
2022-10-03T18:02:21.897Z,13.20
2022-10-03T18:04:58.408Z,13.32
2022-10-03T18:07:29.311Z,18.70
2022-10-03T18:09:58.435Z,6.35
2022-10-03T18:12:35.329Z,8.30
2022-10-03T18:15:50.521Z,10.00
2022-10-03T18:19:00.458Z,10.88
2022-10-03T18:21:39.731Z,9.88
2022-10-03T18:26:45.525Z,8.35
2022-10-03T18:29:30.222Z,8.05
2022-10-03T18:32:05.078Z,12.00
2022-10-03T18:34:42.457Z,7.68
2022-10-03T18:37:33.957Z,10.13
2022-10-03T18:40:07.179Z,6.82
2022-10-03T18:42:36.135Z,8.82
2022-10-03T18:45:05.184Z,7.22
2022-10-03T18:47:37.724Z,7.28
2022-10-03T18:50:18.571Z,5.60
2022-10-03T18:52:54.500Z,8.82
2022-10-03T18:55:29.589Z,5.82
2022-10-03T18:58:06.109Z,8.38
2022-10-03T19:00:42.919Z,7.53
2022-10-03T19:03:17.482Z,8.77
2022-10-03T19:05:51.005Z,6.35
2022-10-03T19:08:24.753Z,6.57
2022-10-03T19:10:55.222Z,9.05
2022-10-03T19:13:31.641Z,8.73
2022-10-03T19:16:22.310Z,6.32
2022-10-03T19:19:04.654Z,9.52
2022-10-03T19:21:39.638Z,8.63
2022-10-03T19:24:14.254Z,5.82
2022-10-03T19:26:48.457Z,8.73
2022-10-03T19:29:24.182Z,9.70
2022-10-03T19:32:02.767Z,9.70
2022-10-03T19:34:37.959Z,9.43
2022-10-03T19:37:14.997Z,9.68
2022-10-03T19:39:45.041Z,6.45
2022-10-03T19:42:27.984Z,12.23
2022-10-03T19:44:58.312Z,10.95
2022-10-03T19:47:32.528Z,9.18
2022-10-03T19:50:14.391Z,9.63
2022-10-03T19:52:44.777Z,8.45
2022-10-03T19:55:16.819Z,9.40
2022-10-03T19:57:50.107Z,6.28
2022-10-03T20:00:25.437Z,7.43
2022-10-03T20:03:06.185Z,7.72
2022-10-03T20:05:43.101Z,9.27
2022-10-03T20:08:23.825Z,8.05
2022-10-03T20:11:18.049Z,8.38
2022-10-03T20:13:49.310Z,7.50
2022-10-03T20:16:21.038Z,7.10
2022-10-03T20:18:53.045Z,7.28
2022-10-03T20:21:26.462Z,9.43
2022-10-03T20:24:14.674Z,8.75
2022-10-03T20:26:56.784Z,6.38
2022-10-03T20:29:31.626Z,8.48
2022-10-03T20:32:02.528Z,7.55
2022-10-03T20:34:32.245Z,8.23
2022-10-03T20:39:41.811Z,6.13
2022-10-03T20:42:18.451Z,13.18
2022-10-03T20:45:02.842Z,7.85
2022-10-03T20:47:54.890Z,8.75
2022-10-03T20:50:28.302Z,11.80
2022-10-03T20:53:04.110Z,6.07
2022-10-03T20:55:40.685Z,8.18
2022-10-03T20:58:20.353Z,8.02
2022-10-03T21:00:53.780Z,7.50
2022-10-03T21:03:47.228Z,7.85
2022-10-03T21:06:22.382Z,10.00
2022-10-03T21:08:52.271Z,5.90
2022-10-03T21:11:25.592Z,9.25
2022-10-03T21:13:58.451Z,8.35
2022-10-03T21:16:30.217Z,7.75
2022-10-03T21:19:02.677Z,5.32
2022-10-03T21:21:42.235Z,6.85
2022-10-03T21:24:17.249Z,5.68
2022-10-03T21:26:55.429Z,7.80
2022-10-03T21:29:31.451Z,4.28
2022-10-03T21:32:15.906Z,5.97
2022-10-03T21:34:53.118Z,9.55
2022-10-03T21:37:30.455Z,8.65
2022-10-03T21:40:12.608Z,4.68
2022-10-03T21:42:53.747Z,7.72
2022-10-03T21:45:28.467Z,7.65
2022-10-03T21:48:03.581Z,7.35
2022-10-03T21:50:42.600Z,5.97
2022-10-03T21:53:20.635Z,7.10
2022-10-03T21:56:08.914Z,7.55
2022-10-03T21:59:00.794Z,6.87
2022-10-03T22:01:35.003Z,6.65
2022-10-03T22:04:12.113Z,7.15
2022-10-03T22:06:50.288Z,7.72
2022-10-03T22:09:19.146Z,8.45
2022-10-03T22:11:54.869Z,5.88
2022-10-03T22:14:37.480Z,7.43
2022-10-03T22:17:16.449Z,9.05
2022-10-03T22:19:54.835Z,7.32
2022-10-03T22:22:43.941Z,8.30
2022-10-03T22:25:24.856Z,9.70
2022-10-03T22:28:02.053Z,7.57
2022-10-03T22:30:38.310Z,5.85
2022-10-03T22:33:13.841Z,7.72
2022-10-03T22:35:50.793Z,8.60
2022-10-03T22:38:23.626Z,6.18
2022-10-03T22:40:57.160Z,7.35
2022-10-03T22:43:29.246Z,5.47
2022-10-03T22:46:21.211Z,8.75
2022-10-03T22:48:59.347Z,6.53
2022-10-03T22:51:41.090Z,7.13
2022-10-03T22:54:17.191Z,8.48
2022-10-03T22:56:57.697Z,7.22
2022-10-03T22:59:31.537Z,7.38
2022-10-03T23:02:06.088Z,9.45
2022-10-03T23:04:38.167Z,7.47
2022-10-03T23:07:35.839Z,7.43
2022-10-03T23:10:32.796Z,8.43
2022-10-03T23:13:07.532Z,10.05
2022-10-03T23:15:40.954Z,6.43
2022-10-03T23:18:38.872Z,9.27
2022-10-03T23:21:09.454Z,8.32
2022-10-03T23:23:54.747Z,5.72
2022-10-03T23:26:46.970Z,7.00
2022-10-03T23:29:17.761Z,7.85
2022-10-03T23:31:58.996Z,7.40
2022-10-03T23:35:08.354Z,8.02
2022-10-03T23:37:45.369Z,8.02
2022-10-03T23:40:37.105Z,7.80
2022-10-03T23:43:24.116Z,5.70
2022-10-03T23:45:55.655Z,6.97
2022-10-03T23:48:27.148Z,14.20
2022-10-03T23:51:00.396Z,4.63
2022-10-03T23:53:38.816Z,9.23
2022-10-03T23:56:24.841Z,5.28
2022-10-03T23:58:58.630Z,6.00
